Terminal Aerodrome Forecast
Issued by NWS

Home | Current Version | Previous Version | Text Only | Print | Product List | Glossary On
Versions: 1 2 3 4 5 6 7 8 9 10 11 12 13 14 15 16 17 18
000
FTUS45 KABQ 291130
TAFTCC
TAF
KTCC 291130Z 2912/3012 04007KT P6SM BKN200
     FM291800 08011KT P6SM VCSH BKN080
      TEMPO 2922/3002 4SM TSRA OVC030CB
     FM300200 03008KT P6SM BKN050=

USA.gov is the U.S. government's official web portal to all federal, state and local government web resources and services.